createdAt,value
2017-12-08T00:00:23.860Z,15.80
2017-12-08T00:02:51.474Z,15.80
2017-12-08T00:05:19.070Z,15.70
2017-12-08T00:07:47.435Z,15.80
2017-12-08T00:10:14.998Z,15.80
2017-12-08T00:12:43.285Z,15.80
2017-12-08T00:15:10.811Z,15.80
2017-12-08T00:17:39.127Z,15.70
2017-12-08T00:20:06.757Z,15.70
2017-12-08T00:22:35.465Z,15.70
2017-12-08T00:25:03.244Z,15.70
2017-12-08T00:27:30.959Z,15.80
2017-12-08T00:29:58.572Z,15.70
2017-12-08T00:32:26.124Z,15.70
2017-12-08T00:34:53.635Z,15.70
2017-12-08T00:37:21.222Z,15.80
2017-12-08T00:39:48.899Z,15.70
2017-12-08T00:42:16.500Z,15.80
2017-12-08T00:44:44.032Z,15.80
2017-12-08T00:47:11.687Z,15.70
2017-12-08T00:49:39.196Z,15.80
2017-12-08T00:52:06.820Z,15.80
2017-12-08T00:54:34.459Z,15.80
2017-12-08T00:57:01.996Z,15.80
2017-12-08T00:59:29.563Z,15.80
2017-12-08T01:01:57.087Z,15.80
2017-12-08T01:04:24.649Z,15.70
2017-12-08T01:06:52.296Z,15.80
2017-12-08T01:09:20.373Z,15.80
2017-12-08T01:11:48.091Z,15.70
2017-12-08T01:14:15.735Z,15.70
2017-12-08T01:16:43.240Z,15.70
2017-12-08T01:19:10.748Z,15.70
2017-12-08T01:21:39.024Z,15.70
2017-12-08T01:24:07.308Z,15.70
2017-12-08T01:26:34.825Z,15.80
2017-12-08T01:29:02.458Z,15.70
2017-12-08T01:31:30.062Z,15.70
2017-12-08T01:33:57.638Z,15.70
2017-12-08T01:36:25.157Z,15.80
2017-12-08T01:38:52.680Z,15.70
2017-12-08T01:41:20.278Z,15.70
2017-12-08T01:43:47.776Z,15.70
2017-12-08T01:46:15.333Z,15.80
2017-12-08T01:48:42.881Z,15.80
2017-12-08T01:51:11.144Z,15.80
2017-12-08T01:53:39.423Z,15.80
2017-12-08T01:56:07.705Z,15.80
2017-12-08T01:58:35.974Z,15.80
2017-12-08T02:01:04.345Z,15.80
2017-12-08T02:03:31.864Z,15.80
2017-12-08T02:05:59.620Z,15.80
2017-12-08T02:08:27.443Z,15.80
2017-12-08T02:10:56.452Z,15.80
2017-12-08T02:13:24.248Z,15.80
2017-12-08T02:15:51.897Z,15.80
2017-12-08T02:18:20.269Z,15.80
2017-12-08T02:20:47.757Z,15.80
2017-12-08T02:23:15.273Z,15.80
2017-12-08T02:25:42.780Z,15.70
2017-12-08T02:28:10.292Z,15.80
2017-12-08T02:30:37.897Z,15.70
2017-12-08T02:33:05.399Z,15.70
2017-12-08T02:35:33.648Z,15.70
2017-12-08T02:38:01.935Z,15.70
2017-12-08T02:40:30.210Z,15.70
2017-12-08T02:42:58.461Z,15.70
2017-12-08T02:45:25.960Z,15.70
2017-12-08T02:47:53.476Z,15.70
2017-12-08T02:50:21.085Z,15.70
2017-12-08T02:52:48.703Z,15.70
2017-12-08T02:55:16.180Z,15.70
2017-12-08T02:57:44.464Z,15.70
2017-12-08T03:00:11.969Z,15.70
2017-12-08T03:02:39.473Z,15.80
2017-12-08T03:05:07.838Z,15.70
2017-12-08T03:07:35.556Z,15.70
2017-12-08T03:10:03.251Z,15.80
2017-12-08T03:12:31.009Z,15.70
2017-12-08T03:14:58.541Z,15.80
2017-12-08T03:17:26.032Z,15.80
2017-12-08T03:19:53.534Z,15.80
2017-12-08T03:22:21.055Z,15.70
2017-12-08T03:24:49.432Z,15.70
2017-12-08T03:27:17.728Z,15.70
2017-12-08T03:29:45.238Z,15.70
2017-12-08T03:32:12.792Z,15.70
2017-12-08T03:34:40.292Z,15.70
2017-12-08T03:37:08.536Z,15.70
2017-12-08T03:39:36.108Z,15.70
2017-12-08T03:42:03.658Z,15.70
2017-12-08T03:44:31.144Z,15.80
2017-12-08T03:46:59.468Z,15.70
2017-12-08T03:49:27.080Z,15.70
2017-12-08T03:51:54.642Z,15.70
2017-12-08T03:54:22.897Z,15.70
2017-12-08T03:56:50.405Z,15.70
2017-12-08T03:59:17.919Z,15.70
2017-12-08T04:01:46.198Z,15.70
2017-12-08T04:04:14.448Z,15.70
2017-12-08T04:06:42.084Z,15.70
2017-12-08T04:09:09.885Z,15.70
2017-12-08T04:11:37.495Z,15.70
2017-12-08T04:14:04.972Z,15.70
2017-12-08T04:16:32.459Z,15.70
2017-12-08T04:18:59.959Z,15.70
2017-12-08T04:21:27.457Z,15.70
2017-12-08T04:23:54.979Z,15.70
2017-12-08T04:26:22.545Z,15.70
2017-12-08T04:28:50.042Z,15.70
2017-12-08T04:31:17.516Z,15.70
2017-12-08T04:33:45.796Z,15.70
2017-12-08T04:36:14.049Z,15.70
2017-12-08T04:38:41.714Z,15.70
2017-12-08T04:41:09.292Z,15.70
2017-12-08T04:43:37.585Z,15.70
2017-12-08T04:46:05.905Z,15.70
2017-12-08T04:48:33.490Z,15.70
2017-12-08T04:51:01.012Z,15.70
2017-12-08T04:53:28.501Z,15.70
2017-12-08T04:55:56.023Z,15.70
2017-12-08T04:58:23.561Z,15.70
2017-12-08T05:00:51.128Z,15.70
2017-12-08T05:03:18.879Z,15.70
2017-12-08T05:05:46.396Z,15.70
2017-12-08T05:08:13.944Z,15.70
2017-12-08T05:10:41.435Z,15.70
2017-12-08T05:13:09.697Z,15.70
2017-12-08T05:15:38.056Z,15.70
2017-12-08T05:18:05.618Z,15.70
2017-12-08T05:20:33.177Z,15.70
2017-12-08T05:23:00.679Z,15.70
2017-12-08T05:25:28.173Z,15.70
2017-12-08T05:27:55.683Z,15.80
2017-12-08T05:30:23.969Z,15.80
2017-12-08T05:32:51.499Z,15.80
2017-12-08T05:35:19.009Z,15.80
2017-12-08T05:37:47.476Z,15.80
2017-12-08T05:40:14.985Z,15.80
2017-12-08T05:42:42.500Z,15.80
2017-12-08T05:45:09.985Z,15.80
2017-12-08T05:47:37.556Z,15.80
2017-12-08T05:50:05.132Z,15.80
2017-12-08T05:52:32.738Z,15.80
2017-12-08T05:55:00.264Z,15.80
2017-12-08T05:57:28.531Z,15.80
2017-12-08T05:59:56.808Z,15.80
2017-12-08T06:02:25.096Z,15.80
2017-12-08T06:04:52.605Z,15.80
2017-12-08T06:07:20.112Z,15.80
2017-12-08T06:09:47.660Z,15.80
2017-12-08T06:12:16.041Z,15.80
2017-12-08T06:14:44.363Z,15.80
2017-12-08T06:17:11.826Z,15.80
2017-12-08T06:19:39.318Z,15.80
2017-12-08T06:22:07.576Z,15.80
2017-12-08T06:24:35.047Z,15.80
2017-12-08T06:27:03.297Z,15.80
2017-12-08T06:29:30.850Z,15.80
2017-12-08T06:31:58.399Z,15.80
2017-12-08T06:34:25.899Z,15.80
2017-12-08T06:36:54.143Z,15.80
2017-12-08T06:39:21.637Z,15.80
2017-12-08T06:41:49.978Z,15.80
2017-12-08T06:44:17.454Z,15.80
2017-12-08T06:46:44.963Z,15.80
2017-12-08T06:49:12.891Z,15.80
2017-12-08T06:51:41.186Z,15.80
2017-12-08T06:54:09.607Z,15.80
2017-12-08T06:56:37.187Z,15.80
2017-12-08T06:59:04.688Z,15.80
2017-12-08T07:01:32.170Z,15.80
2017-12-08T07:03:59.652Z,15.80
2017-12-08T07:06:27.205Z,15.80
2017-12-08T07:08:54.790Z,15.80
2017-12-08T07:11:23.054Z,15.80
2017-12-08T07:13:51.403Z,15.80
2017-12-08T07:16:18.902Z,15.80
2017-12-08T07:18:46.363Z,15.80
2017-12-08T07:21:14.946Z,15.80
2017-12-08T07:23:43.191Z,15.80
2017-12-08T07:26:10.679Z,15.80
2017-12-08T07:28:38.918Z,15.80
2017-12-08T07:31:06.409Z,15.80
2017-12-08T07:33:34.694Z,15.80
2017-12-08T07:36:02.289Z,15.80
2017-12-08T07:38:29.767Z,15.80
2017-12-08T07:40:57.243Z,15.80
2017-12-08T07:43:25.503Z,15.80
2017-12-08T07:45:52.982Z,15.80
2017-12-08T07:48:21.233Z,15.80
2017-12-08T07:50:48.822Z,15.80
2017-12-08T07:53:17.570Z,15.80
2017-12-08T07:55:45.331Z,15.80
2017-12-08T07:58:12.978Z,15.80
2017-12-08T08:00:40.443Z,15.80
2017-12-08T08:03:07.911Z,15.80
2017-12-08T08:05:35.399Z,15.80
2017-12-08T08:08:02.923Z,15.80
2017-12-08T08:10:30.443Z,15.80
2017-12-08T08:12:58.064Z,15.80
2017-12-08T08:15:25.519Z,15.80
2017-12-08T08:17:53.779Z,15.80
2017-12-08T08:20:21.252Z,15.80
2017-12-08T08:22:48.735Z,15.80
2017-12-08T08:25:17.080Z,15.80
2017-12-08T08:27:44.664Z,15.80
2017-12-08T08:30:13.022Z,15.80
2017-12-08T08:32:40.631Z,15.80
2017-12-08T08:35:08.157Z,15.80
2017-12-08T08:37:35.614Z,15.80
2017-12-08T08:40:03.863Z,15.80
2017-12-08T08:42:32.130Z,15.80
2017-12-08T08:44:59.790Z,15.80
2017-12-08T08:47:27.442Z,15.80
2017-12-08T08:49:55.048Z,15.80
2017-12-08T08:52:23.371Z,15.80
2017-12-08T08:54:50.834Z,15.70
2017-12-08T08:57:18.402Z,15.80
2017-12-08T08:59:45.898Z,15.80
2017-12-08T09:02:14.142Z,15.80
2017-12-08T09:04:41.779Z,15.70
2017-12-08T09:07:09.324Z,15.70
2017-12-08T09:09:36.798Z,15.70
2017-12-08T09:12:04.374Z,15.70
2017-12-08T09:14:31.861Z,15.70
2017-12-08T09:17:00.111Z,15.70
2017-12-08T09:19:27.626Z,15.70
2017-12-08T09:21:55.309Z,15.70
2017-12-08T09:24:22.922Z,15.70
2017-12-08T09:26:51.222Z,15.70
2017-12-08T09:29:18.697Z,15.70
2017-12-08T09:31:46.203Z,15.70
2017-12-08T09:34:13.701Z,15.70
2017-12-08T09:36:42.091Z,15.70
2017-12-08T09:39:09.645Z,15.70
2017-12-08T09:41:37.200Z,15.70
2017-12-08T09:44:04.914Z,15.70
2017-12-08T09:46:32.378Z,15.70
2017-12-08T09:49:00.636Z,15.70
2017-12-08T09:51:28.110Z,15.80
2017-12-08T09:53:58.935Z,15.80
2017-12-08T09:59:01.249Z,15.70
2017-12-08T10:01:29.583Z,15.70
2017-12-08T10:03:57.266Z,15.70
2017-12-08T10:06:25.714Z,15.70
2017-12-08T10:08:53.374Z,15.70
2017-12-08T10:11:21.015Z,15.70
2017-12-08T10:13:48.472Z,15.70
2017-12-08T10:16:15.973Z,15.70
2017-12-08T10:18:43.435Z,15.70
2017-12-08T10:21:10.934Z,15.70
2017-12-08T10:23:38.556Z,15.70
2017-12-08T10:26:07.109Z,15.70
2017-12-08T10:28:34.674Z,15.70
2017-12-08T10:31:02.152Z,15.70
2017-12-08T10:33:29.649Z,15.70
2017-12-08T10:35:57.115Z,15.70
2017-12-08T10:38:24.607Z,15.70
2017-12-08T10:40:52.148Z,15.70
2017-12-08T10:43:19.655Z,15.70
2017-12-08T10:45:48.414Z,15.70
2017-12-08T10:48:15.860Z,15.70
2017-12-08T10:50:43.343Z,15.70
2017-12-08T10:53:11.585Z,15.70
2017-12-08T10:55:39.135Z,15.70
2017-12-08T10:58:06.750Z,15.70
2017-12-08T11:00:41.008Z,15.70
2017-12-08T11:03:08.455Z,15.70
2017-12-08T11:05:35.935Z,15.70
2017-12-08T11:08:03.423Z,15.70
2017-12-08T11:10:31.662Z,15.70
2017-12-08T11:12:59.161Z,15.70
2017-12-08T11:15:27.828Z,15.70
2017-12-08T11:17:55.863Z,15.70
2017-12-08T11:20:23.463Z,15.70
2017-12-08T11:22:50.949Z,15.70
2017-12-08T11:25:18.435Z,15.70
2017-12-08T11:27:45.926Z,15.70
2017-12-08T11:30:13.463Z,15.70
2017-12-08T11:32:41.006Z,15.70
2017-12-08T11:35:08.506Z,15.70
2017-12-08T11:37:36.855Z,15.70
2017-12-08T11:40:04.354Z,15.70
2017-12-08T11:42:32.598Z,15.70
2017-12-08T11:45:00.072Z,15.70
2017-12-08T11:47:27.565Z,15.70
2017-12-08T11:49:55.075Z,15.70
2017-12-08T11:52:22.674Z,15.70
2017-12-08T11:54:50.268Z,15.70
2017-12-08T11:57:17.753Z,15.70
2017-12-08T11:59:45.235Z,15.70
2017-12-08T12:02:13.484Z,15.70
2017-12-08T12:04:40.981Z,15.70
2017-12-08T12:07:09.919Z,15.70
2017-12-08T12:09:37.580Z,15.70
2017-12-08T12:12:05.854Z,15.70
2017-12-08T12:14:33.500Z,15.70
2017-12-08T12:17:01.151Z,15.70
2017-12-08T12:19:28.662Z,15.70
2017-12-08T12:21:56.138Z,15.70
2017-12-08T12:24:24.450Z,15.70
2017-12-08T12:26:51.914Z,15.70
2017-12-08T12:29:19.471Z,15.70
2017-12-08T12:31:47.069Z,15.70
2017-12-08T12:34:14.616Z,15.70
2017-12-08T12:36:42.113Z,15.70
2017-12-08T12:39:09.600Z,15.70
2017-12-08T12:41:37.103Z,15.70
2017-12-08T12:44:04.575Z,15.60
2017-12-08T12:46:32.831Z,15.70
2017-12-08T12:49:00.386Z,15.70
2017-12-08T12:51:27.975Z,15.70
2017-12-08T12:53:56.214Z,15.70
2017-12-08T12:56:23.689Z,15.60
2017-12-08T12:58:51.949Z,15.60
2017-12-08T13:01:19.431Z,15.60
2017-12-08T13:03:48.228Z,15.60
2017-12-08T13:06:15.933Z,15.60
2017-12-08T13:08:43.715Z,15.60
2017-12-08T13:11:11.318Z,15.60
2017-12-08T13:13:38.798Z,15.60
2017-12-08T13:16:06.366Z,15.60
2017-12-08T13:18:33.850Z,15.60
2017-12-08T13:21:01.490Z,15.60
2017-12-08T13:23:29.109Z,15.70
2017-12-08T13:25:57.389Z,15.60
2017-12-08T13:28:24.956Z,15.70
2017-12-08T13:30:52.435Z,15.60
2017-12-08T13:33:19.911Z,15.60
2017-12-08T13:35:47.399Z,15.60
2017-12-08T13:38:15.659Z,15.70
2017-12-08T13:40:43.315Z,15.60
2017-12-08T13:43:10.835Z,15.60
2017-12-08T13:45:38.330Z,15.60
2017-12-08T13:48:05.810Z,15.60
2017-12-08T13:50:34.062Z,15.60
2017-12-08T13:53:01.542Z,15.60
2017-12-08T13:55:41.836Z,15.60
2017-12-08T13:58:09.354Z,15.60
2017-12-08T14:00:37.602Z,15.60
2017-12-08T14:03:05.098Z,15.60
2017-12-08T14:05:33.340Z,15.60
2017-12-08T14:08:00.827Z,15.60
2017-12-08T14:10:29.171Z,15.60
2017-12-08T14:12:56.851Z,15.60
2017-12-08T14:15:25.194Z,15.60
2017-12-08T14:17:52.694Z,15.60
2017-12-08T14:20:21.033Z,15.60
2017-12-08T14:22:48.508Z,15.60
2017-12-08T14:25:16.078Z,15.60
2017-12-08T14:27:43.562Z,15.60
2017-12-08T14:30:11.051Z,15.60
2017-12-08T14:32:38.775Z,15.60
2017-12-08T14:35:07.073Z,15.60
2017-12-08T14:37:34.673Z,15.60
2017-12-08T14:40:02.142Z,15.60
2017-12-08T14:42:29.626Z,15.60
2017-12-08T14:44:57.866Z,15.60
2017-12-08T14:47:25.381Z,15.60
2017-12-08T14:49:53.080Z,15.60
2017-12-08T14:52:20.661Z,15.60
2017-12-08T14:54:48.284Z,15.60
2017-12-08T14:57:15.762Z,15.60
2017-12-08T14:59:43.295Z,15.60
2017-12-08T15:02:10.786Z,15.60
2017-12-08T15:04:38.365Z,15.60
2017-12-08T15:07:06.030Z,15.60
2017-12-08T15:09:33.746Z,15.60
2017-12-08T15:12:01.239Z,15.60
2017-12-08T15:14:29.492Z,15.60
2017-12-08T15:16:56.966Z,15.60
2017-12-08T15:19:25.233Z,15.60
2017-12-08T15:21:52.745Z,15.60
2017-12-08T15:24:20.463Z,15.60
2017-12-08T15:26:48.999Z,15.60
2017-12-08T15:29:16.865Z,15.60
2017-12-08T15:31:44.469Z,15.60
2017-12-08T15:34:11.941Z,15.60
2017-12-08T15:36:40.190Z,15.60
2017-12-08T15:39:07.669Z,15.60
2017-12-08T15:41:35.934Z,15.60
2017-12-08T15:44:04.191Z,15.60
2017-12-08T15:46:31.739Z,15.60
2017-12-08T15:48:59.449Z,15.60
2017-12-08T15:51:26.953Z,15.60
2017-12-08T15:53:54.433Z,15.60
2017-12-08T15:56:21.903Z,15.60
2017-12-08T15:58:50.155Z,15.60
2017-12-08T16:01:17.630Z,15.60
2017-12-08T16:03:46.003Z,15.60
2017-12-08T16:06:14.263Z,15.60
2017-12-08T16:08:41.870Z,15.60
2017-12-08T16:11:09.432Z,15.60
2017-12-08T16:13:36.916Z,15.60
2017-12-08T16:16:04.402Z,15.60
2017-12-08T16:18:31.950Z,15.60
2017-12-08T16:20:59.597Z,15.50
2017-12-08T16:23:27.474Z,15.50
2017-12-08T16:25:55.126Z,15.50
2017-12-08T16:28:22.626Z,15.50
2017-12-08T16:30:50.902Z,15.60
2017-12-08T16:33:19.135Z,15.50
2017-12-08T16:35:46.618Z,15.50
2017-12-08T16:38:14.871Z,15.50
2017-12-08T16:40:42.417Z,15.50
2017-12-08T16:43:10.196Z,15.50
2017-12-08T16:45:37.827Z,15.60
2017-12-08T16:48:05.421Z,15.60
2017-12-08T16:50:32.896Z,15.60
2017-12-08T16:53:00.376Z,15.50
2017-12-08T16:55:27.865Z,15.50
2017-12-08T16:57:55.346Z,15.50
2017-12-08T17:00:22.875Z,15.50
2017-12-08T17:02:50.444Z,15.50
2017-12-08T17:05:17.912Z,15.50
2017-12-08T17:07:45.470Z,15.50
2017-12-08T17:10:12.974Z,15.50
2017-12-08T17:12:41.330Z,15.50
2017-12-08T17:15:08.823Z,15.50
2017-12-08T17:17:36.418Z,15.50
2017-12-08T17:20:03.906Z,15.50
2017-12-08T17:22:31.394Z,15.50
2017-12-08T17:24:58.886Z,15.50
2017-12-08T17:27:26.392Z,15.50
2017-12-08T17:29:54.715Z,15.50
2017-12-08T17:32:22.385Z,15.50
2017-12-08T17:34:49.890Z,15.50
2017-12-08T17:37:18.175Z,15.50
2017-12-08T17:39:45.683Z,15.50
2017-12-08T17:42:13.166Z,15.40
2017-12-08T17:44:41.426Z,15.30
2017-12-08T17:47:08.911Z,15.30
2017-12-08T17:49:37.162Z,15.10
2017-12-08T17:52:04.659Z,15.10
2017-12-08T17:54:32.249Z,15.10
2017-12-08T17:56:59.919Z,15.00
2017-12-08T17:59:27.378Z,14.90
2017-12-08T18:01:54.879Z,14.90
2017-12-08T18:04:23.128Z,15.00
2017-12-08T18:06:50.611Z,15.00
2017-12-08T18:09:19.030Z,15.10
2017-12-08T18:11:46.702Z,15.10
2017-12-08T18:14:14.402Z,15.20
2017-12-08T18:16:42.696Z,15.20
2017-12-08T18:19:10.939Z,15.20
2017-12-08T18:21:38.434Z,15.20
2017-12-08T18:24:05.913Z,15.20
2017-12-08T18:26:33.406Z,15.20
2017-12-08T18:29:00.904Z,15.20
2017-12-08T18:31:28.477Z,15.20
2017-12-08T18:33:55.970Z,15.20
2017-12-08T18:36:23.430Z,15.20
2017-12-08T18:38:50.999Z,15.20
2017-12-08T18:41:18.495Z,15.20
2017-12-08T18:43:46.806Z,15.20
2017-12-08T18:46:14.410Z,15.20
2017-12-08T18:48:42.714Z,15.20
2017-12-08T18:51:10.302Z,15.20
2017-12-08T18:53:37.793Z,15.20
2017-12-08T18:56:05.482Z,15.20
2017-12-08T18:58:32.994Z,15.20
2017-12-08T19:01:00.564Z,15.20
2017-12-08T19:03:28.124Z,15.20
2017-12-08T19:05:55.598Z,15.20
2017-12-08T19:08:23.864Z,15.20
2017-12-08T19:10:51.359Z,15.20
2017-12-08T19:13:18.905Z,15.20
2017-12-08T19:15:46.451Z,15.20
2017-12-08T19:18:14.742Z,15.20
2017-12-08T19:20:42.243Z,15.20
2017-12-08T19:23:09.724Z,15.20
2017-12-08T19:25:37.206Z,15.20
2017-12-08T19:28:05.494Z,15.20
2017-12-08T19:30:33.114Z,15.20
2017-12-08T19:33:00.704Z,15.20
2017-12-08T19:35:29.002Z,15.20
2017-12-08T19:37:56.537Z,15.20
2017-12-08T19:40:24.799Z,15.20
2017-12-08T19:42:53.043Z,15.20
2017-12-08T19:45:20.527Z,15.20
2017-12-08T19:47:48.775Z,15.20
2017-12-08T19:50:16.287Z,15.20
2017-12-08T19:52:44.055Z,15.20
2017-12-08T19:55:11.643Z,15.20
2017-12-08T19:57:39.228Z,15.20
2017-12-08T20:00:06.766Z,15.20
2017-12-08T20:02:34.240Z,15.20
2017-12-08T20:05:01.807Z,15.20
2017-12-08T20:07:29.404Z,15.20
2017-12-08T20:09:56.995Z,15.20
2017-12-08T20:12:24.522Z,15.30
2017-12-08T20:14:52.002Z,15.30
2017-12-08T20:17:19.531Z,15.30
2017-12-08T20:19:47.133Z,15.30
2017-12-08T20:22:14.744Z,15.30
2017-12-08T20:24:43.106Z,15.30
2017-12-08T20:27:10.571Z,15.30
2017-12-08T20:29:38.126Z,15.30
2017-12-08T20:32:06.357Z,15.30
2017-12-08T20:34:33.898Z,15.30
2017-12-08T20:37:01.511Z,15.30
2017-12-08T20:39:29.923Z,15.30
2017-12-08T20:41:57.533Z,15.30
2017-12-08T20:44:25.116Z,15.30
2017-12-08T20:46:53.457Z,15.30
2017-12-08T20:49:20.938Z,15.30
2017-12-08T20:51:48.421Z,15.30
2017-12-08T20:54:16.001Z,15.30
2017-12-08T20:56:43.584Z,15.30
2017-12-08T20:59:11.258Z,15.30
2017-12-08T21:01:39.572Z,15.30
2017-12-08T21:04:07.816Z,15.30
2017-12-08T21:06:35.302Z,15.30
2017-12-08T21:09:03.556Z,15.20
2017-12-08T21:11:31.111Z,15.20
2017-12-08T21:13:58.623Z,15.20
2017-12-08T21:16:26.180Z,15.30
2017-12-08T21:18:53.789Z,15.20
2017-12-08T21:21:21.257Z,15.20
2017-12-08T21:23:49.523Z,15.20
2017-12-08T21:26:18.522Z,15.20
2017-12-08T21:28:46.028Z,15.20
2017-12-08T21:31:13.528Z,15.20
2017-12-08T21:33:41.156Z,15.20
2017-12-08T21:36:08.754Z,15.20
2017-12-08T21:38:37.100Z,15.20
2017-12-08T21:41:04.710Z,15.20
2017-12-08T21:43:33.070Z,15.20
2017-12-08T21:46:01.433Z,15.20
2017-12-08T21:48:29.715Z,15.20
2017-12-08T21:50:57.229Z,15.20
2017-12-08T21:53:24.736Z,15.20
2017-12-08T21:55:52.322Z,15.20
2017-12-08T21:58:19.850Z,15.20
2017-12-08T22:00:47.442Z,15.20
2017-12-08T22:03:14.918Z,15.20
2017-12-08T22:05:42.477Z,15.20
2017-12-08T22:08:09.981Z,15.10
2017-12-08T22:10:37.527Z,15.10
2017-12-08T22:13:05.010Z,15.10
2017-12-08T22:15:33.268Z,15.10
2017-12-08T22:18:00.818Z,15.10
2017-12-08T22:20:28.447Z,15.10
2017-12-08T22:22:56.102Z,15.10
2017-12-08T22:25:23.879Z,15.10
2017-12-08T22:27:51.366Z,15.10
2017-12-08T22:30:19.614Z,15.10
2017-12-08T22:32:47.094Z,15.10
2017-12-08T22:35:14.573Z,15.00
2017-12-08T22:37:42.844Z,15.10
2017-12-08T22:40:10.328Z,15.00
2017-12-08T22:42:37.868Z,15.00
2017-12-08T22:45:05.361Z,15.00
2017-12-08T22:47:32.831Z,15.00
2017-12-08T22:50:00.316Z,15.00
2017-12-08T22:52:27.814Z,14.20
2017-12-08T22:54:56.252Z,12.30
2017-12-08T22:57:23.785Z,12.20
2017-12-08T22:59:51.467Z,12.20
2017-12-08T23:02:19.826Z,13.50
2017-12-08T23:04:47.298Z,13.50
2017-12-08T23:07:14.789Z,13.80
2017-12-08T23:09:43.026Z,14.20
2017-12-08T23:12:10.532Z,14.20
2017-12-08T23:14:38.774Z,14.40
2017-12-08T23:17:06.287Z,14.40
2017-12-08T23:19:33.828Z,14.40
2017-12-08T23:22:01.399Z,14.40
2017-12-08T23:24:28.851Z,14.40
2017-12-08T23:26:56.339Z,14.40
2017-12-08T23:29:23.952Z,14.50
2017-12-08T23:31:51.498Z,14.40
2017-12-08T23:34:19.816Z,14.60
2017-12-08T23:36:47.375Z,14.50
2017-12-08T23:39:14.842Z,14.60
2017-12-08T23:41:42.343Z,14.70
2017-12-08T23:44:10.599Z,14.80
2017-12-08T23:46:38.155Z,14.80
2017-12-08T23:49:05.641Z,14.80
2017-12-08T23:51:33.890Z,14.80
2017-12-08T23:54:01.443Z,14.80
2017-12-08T23:56:29.033Z,14.90
2017-12-08T23:58:56.478Z,14.90
